Time;durP1;ratioP1;P1;durP2;ratioP2;P2;SDS_P1;SDS_P2;PMS_P1;PMS_P2;Temp;Humidity;BMP_temperature;BMP_pressure;BME280_temperature;BME280_humidity;BME280_pressure;Samples;Min_cycle;Max_cycle;Signal;HPM_P1;HPM_P2
2022/03/11 00:01:44;;;;;;;14.45;7.70;;;;;;;4.16;72.50;102580.72;10387707;28;20143;-65
2022/03/11 00:07:03;;;;;;;12.52;6.85;;;;;;;4.15;76.55;102577.16;10389828;28;20066;-68
2022/03/11 00:12:00;;;;;;;14.63;7.85;;;;;;;3.90;78.70;102582.72;10388408;27;20047;-66
2022/03/11 00:16:56;;;;;;;14.45;6.82;;;;;;;3.96;79.26;102570.97;10393162;28;20051;-67
2022/03/11 00:21:55;;;;;;;13.45;7.78;;;;;;;3.86;77.80;102581.50;10395528;28;20050;-67
2022/03/11 00:26:53;;;;;;;14.05;7.03;;;;;;;3.91;76.00;102576.22;10417658;27;20101;-67
2022/03/11 00:31:49;;;;;;;16.08;7.70;;;;;;;3.66;79.15;102575.50;10380316;27;20500;-65
2022/03/11 00:36:46;;;;;;;12.02;6.15;;;;;;;3.75;77.11;102579.56;10415550;27;20047;-66
2022/03/11 00:41:42;;;;;;;13.38;7.38;;;;;;;3.58;78.89;102580.16;10399004;27;20051;-65
2022/03/11 00:46:38;;;;;;;12.75;7.28;;;;;;;3.29;79.56;102580.88;10390797;27;20109;-65
2022/03/11 00:51:35;;;;;;;12.70;6.93;;;;;;;3.39;81.05;102583.91;10398953;27;20051;-65
2022/03/11 00:56:31;;;;;;;13.77;7.00;;;;;;;3.38;82.63;102590.34;10405312;27;20424;-65
2022/03/11 01:01:28;;;;;;;11.60;6.55;;;;;;;3.20;80.48;102572.22;10406484;27;20105;-66
2022/03/11 01:06:25;;;;;;;12.27;7.13;;;;;;;3.05;82.16;102580.69;10403726;27;20047;-65
2022/03/11 01:11:21;;;;;;;11.43;5.78;;;;;;;2.94;80.17;102571.41;10393918;28;20048;-64
2022/03/11 01:16:17;;;;;;;11.20;6.18;;;;;;;3.10;80.56;102572.75;10406910;27;20504;-64
2022/03/11 01:21:14;;;;;;;11.30;5.97;;;;;;;3.12;78.11;102570.66;10390521;28;20458;-64
2022/03/11 01:26:12;;;;;;;11.35;5.80;;;;;;;3.03;76.38;102561.16;10409346;27;20078;-68
2022/03/11 01:31:11;;;;;;;11.68;6.45;;;;;;;2.94;79.26;102568.72;10396941;27;20047;-67
2022/03/11 01:36:10;;;;;;;10.82;6.07;;;;;;;2.85;78.95;102564.63;10389566;27;20048;-67
2022/03/11 01:41:06;;;;;;;14.50;6.30;;;;;;;2.72;80.41;102560.19;10393123;28;20116;-66
2022/03/11 01:46:03;;;;;;;15.55;6.65;;;;;;;2.67;80.49;102560.03;10398582;27;20071;-66
2022/03/11 01:50:59;;;;;;;15.98;6.30;;;;;;;2.78;79.64;102539.56;10396832;27;20036;-65
2022/03/11 01:55:56;;;;;;;11.90;5.85;;;;;;;2.67;80.00;102549.22;10409318;27;20043;-66
2022/03/11 02:00:52;;;;;;;11.77;5.65;;;;;;;2.40;83.26;102542.34;10395013;27;20051;-67
2022/03/11 02:05:49;;;;;;;11.05;5.88;;;;;;;2.39;81.72;102538.00;10390332;27;20138;-65
2022/03/11 02:10:45;;;;;;;12.25;6.07;;;;;;;2.57;79.75;102529.97;10369422;28;20067;-64
2022/03/11 02:15:42;;;;;;;12.93;6.22;;;;;;;2.43;81.17;102534.63;10397437;27;20090;-64
2022/03/11 02:20:39;;;;;;;18.58;7.35;;;;;;;2.33;83.31;102533.47;10405702;27;20049;-67
2022/03/11 02:25:35;;;;;;;11.02;5.85;;;;;;;2.44;82.86;102536.31;10392717;27;20080;-65
2022/03/11 02:30:32;;;;;;;11.95;5.93;;;;;;;2.20;83.88;102527.09;10396775;27;20089;-64
2022/03/11 02:35:28;;;;;;;13.55;5.72;;;;;;;2.10;83.81;102524.06;10386943;28;20533;-65
2022/03/11 02:40:25;;;;;;;13.07;6.00;;;;;;;2.21;81.40;102531.47;10393747;27;20574;-66
2022/03/11 02:45:21;;;;;;;11.98;5.80;;;;;;;2.22;80.67;102533.13;10389977;27;20530;-66
2022/03/11 02:50:18;;;;;;;13.35;5.88;;;;;;;2.07;81.91;102535.31;10394854;27;20077;-66
2022/03/11 02:55:14;;;;;;;15.38;6.18;;;;;;;2.06;81.63;102525.53;10397290;27;20059;-65
2022/03/11 03:00:11;;;;;;;13.27;6.03;;;;;;;2.01;83.85;102525.34;10417078;27;20109;-66
2022/03/11 03:05:08;;;;;;;13.27;6.35;;;;;;;1.94;81.46;102519.19;10405417;27;20055;-66
2022/03/11 03:10:06;;;;;;;12.73;6.78;;;;;;;1.97;83.38;102529.53;10390117;28;20052;-67
2022/03/11 03:15:02;;;;;;;16.30;7.13;;;;;;;1.85;83.32;102522.09;10395781;27;20074;-67
2022/03/11 03:19:59;;;;;;;14.18;6.90;;;;;;;1.95;81.52;102520.81;10383686;27;20069;-66
2022/03/11 03:24:55;;;;;;;14.85;6.65;;;;;;;1.91;81.57;102519.63;10396899;27;20463;-67
2022/03/11 03:29:52;;;;;;;12.80;6.35;;;;;;;1.47;85.04;102509.41;10385631;27;20040;-66
2022/03/11 03:34:49;;;;;;;14.88;7.28;;;;;;;1.63;85.78;102507.28;10386926;27;20497;-66
2022/03/11 03:39:45;;;;;;;11.57;6.30;;;;;;;1.67;84.98;102519.28;10391908;27;20039;-64
2022/03/11 03:44:42;;;;;;;15.38;7.50;;;;;;;1.63;83.93;102518.91;10385985;28;20086;-64
2022/03/11 03:49:38;;;;;;;13.35;6.38;;;;;;;1.42;86.17;102513.81;10428346;27;20081;-67
2022/03/11 03:54:35;;;;;;;16.92;6.80;;;;;;;1.55;86.53;102515.59;10407402;27;20103;-65
2022/03/11 03:59:32;;;;;;;13.93;6.50;;;;;;;1.47;86.92;102508.59;10386688;27;20044;-65
2022/03/11 04:04:28;;;;;;;19.30;6.93;;;;;;;1.46;86.69;102505.09;10385825;27;20093;-64
2022/03/11 04:09:25;;;;;;;13.48;7.28;;;;;;;1.33;86.63;102502.41;10415130;27;20523;-64
2022/03/11 04:14:21;;;;;;;17.30;7.88;;;;;;;1.29;86.05;102503.88;10386907;27;20138;-63
2022/03/11 04:19:18;;;;;;;14.90;6.97;;;;;;;1.21;85.66;102498.72;10438646;27;20097;-67
2022/03/11 04:24:14;;;;;;;15.20;7.07;;;;;;;0.87;87.42;102487.19;10384547;27;20048;-66
2022/03/11 04:29:12;;;;;;;15.30;7.57;;;;;;;0.98;89.71;102483.03;10410789;27;20039;-65
2022/03/11 04:34:09;;;;;;;15.77;8.02;;;;;;;0.80;86.57;102470.22;10408524;27;20079;-67
2022/03/11 04:39:07;;;;;;;17.02;7.63;;;;;;;0.93;87.17;102470.19;10398509;27;20063;-67
2022/03/11 04:44:04;;;;;;;14.80;7.22;;;;;;;0.91;86.95;102468.75;10401317;27;20043;-66
2022/03/11 04:49:01;;;;;;;15.88;7.95;;;;;;;0.81;88.10;102466.47;10410907;27;20085;-66
2022/03/11 04:53:59;;;;;;;18.50;7.90;;;;;;;0.55;89.08;102459.25;10400333;27;20544;-65
2022/03/11 04:58:55;;;;;;;13.25;6.68;;;;;;;0.73;88.37;102469.41;10421094;27;20536;-65
2022/03/11 05:03:51;;;;;;;18.65;7.60;;;;;;;0.69;86.89;102470.84;10394379;27;20500;-66
2022/03/11 05:08:48;;;;;;;15.68;7.40;;;;;;;0.61;86.99;102472.72;10396887;28;20082;-68
2022/03/11 05:13:45;;;;;;;21.05;8.32;;;;;;;0.73;87.30;102486.38;10376451;27;20131;-67
2022/03/11 05:18:41;;;;;;;16.08;7.65;;;;;;;0.61;89.13;102483.47;10375381;27;20032;-68
2022/03/11 05:23:38;;;;;;;13.80;7.13;;;;;;;0.65;86.27;102477.69;10370349;27;20068;-67
2022/03/11 05:28:34;;;;;;;15.18;7.50;;;;;;;0.58;87.33;102473.13;10381316;28;20078;-66
2022/03/11 05:33:30;;;;;;;14.30;6.60;;;;;;;0.49;87.36;102469.00;10360649;28;20105;-64
2022/03/11 05:38:28;;;;;;;15.55;7.65;;;;;;;0.48;88.92;102467.34;10391761;28;20043;-64
2022/03/11 05:43:25;;;;;;;14.63;6.72;;;;;;;0.34;87.93;102471.88;10390271;27;20071;-65
2022/03/11 05:48:21;;;;;;;15.43;7.68;;;;;;;0.28;87.90;102479.94;10394069;27;20108;-65
2022/03/11 05:53:18;;;;;;;15.35;6.65;;;;;;;0.37;86.21;102476.03;10390198;27;20043;-63
2022/03/11 05:58:14;;;;;;;13.93;7.00;;;;;;;0.38;87.39;102473.13;10366972;27;20093;-63
2022/03/11 06:03:12;;;;;;;16.30;6.63;;;;;;;0.50;87.04;102465.25;10372250;27;20079;-63
2022/03/11 06:08:08;;;;;;;15.90;7.25;;;;;;;0.32;86.52;102478.50;10358629;27;20052;-66
2022/03/11 06:13:05;;;;;;;16.13;7.50;;;;;;;0.29;86.54;102473.53;10368026;27;20078;-66
2022/03/11 06:18:02;;;;;;;15.27;7.38;;;;;;;0.39;86.75;102479.34;10362409;27;20496;-66
2022/03/11 06:22:58;;;;;;;13.65;6.85;;;;;;;0.31;86.64;102482.25;10365262;27;20043;-66
2022/03/11 06:27:55;;;;;;;14.95;6.80;;;;;;;0.34;85.20;102487.19;10393127;27;20075;-65
2022/03/11 06:32:55;;;;;;;16.80;7.53;;;;;;;0.34;86.50;102481.81;10419688;27;20059;-66
2022/03/11 06:37:51;;;;;;;16.23;7.13;;;;;;;0.28;86.13;102493.41;10371533;28;20050;-66
2022/03/11 06:42:50;;;;;;;17.10;7.15;;;;;;;0.29;83.69;102489.69;10395205;28;20090;-65
2022/03/11 06:47:47;;;;;;;15.45;6.57;;;;;;;-0.01;86.44;102496.25;10418281;27;20095;-65
2022/03/11 06:52:45;;;;;;;14.43;6.25;;;;;;;0.46;83.66;102496.31;10436276;27;20430;-66
2022/03/11 06:57:41;;;;;;;14.43;6.80;;;;;;;0.41;81.41;102482.66;10419061;27;20569;-66
2022/03/11 07:02:39;;;;;;;20.15;7.18;;;;;;;0.43;82.63;102485.97;10429470;27;20084;-66
2022/03/11 07:07:36;;;;;;;15.18;6.65;;;;;;;0.46;79.66;102480.16;10418270;27;20107;-66
2022/03/11 07:12:33;;;;;;;14.63;6.30;;;;;;;0.43;81.25;102482.47;10398927;27;20047;-66
2022/03/11 07:17:29;;;;;;;18.48;6.38;;;;;;;0.55;79.79;102483.47;10423323;27;20031;-66
2022/03/11 07:22:26;;;;;;;17.88;7.00;;;;;;;0.53;76.84;102480.16;10370421;27;20048;-66
2022/03/11 07:27:27;;;;;;;16.83;7.38;;;;;;;0.67;76.17;102481.00;10407871;28;20397;-66
2022/03/11 07:32:24;;;;;;;12.93;6.28;;;;;;;0.51;74.98;102477.69;10366438;28;20102;-66
2022/03/11 07:37:21;;;;;;;14.85;6.05;;;;;;;0.69;74.44;102468.16;10406682;28;20074;-65
2022/03/11 07:42:18;;;;;;;17.45;6.57;;;;;;;0.71;71.54;102477.66;10391556;28;20051;-66
2022/03/11 07:47:14;;;;;;;21.10;7.07;;;;;;;0.87;72.38;102471.03;10388627;28;20040;-66
2022/03/11 07:52:15;;;;;;;17.70;6.93;;;;;;;0.85;70.20;102467.72;10352243;28;20052;-65
2022/03/11 07:57:12;;;;;;;18.88;6.35;;;;;;;1.07;68.50;102453.97;10369427;28;20147;-65
2022/03/11 08:02:08;;;;;;;17.05;6.90;;;;;;;1.10;68.97;102458.97;10393413;28;20082;-65
2022/03/11 08:07:06;;;;;;;15.63;6.78;;;;;;;1.18;66.74;102450.63;10406077;28;20044;-66
2022/03/11 08:12:03;;;;;;;13.75;6.55;;;;;;;1.31;63.66;102445.22;10422740;27;20048;-66
2022/03/11 08:17:00;;;;;;;12.73;5.80;;;;;;;1.46;60.51;102432.28;10384960;28;20493;-66
2022/03/11 08:21:56;;;;;;;19.05;6.32;;;;;;;1.58;60.77;102432.44;10392102;27;20093;-66
2022/03/11 08:26:54;;;;;;;14.80;5.88;;;;;;;1.64;57.80;102428.03;10391141;28;20527;-66
2022/03/11 08:31:51;;;;;;;14.57;6.70;;;;;;;1.79;57.12;102425.06;10351395;28;20505;-66
2022/03/11 08:36:48;;;;;;;14.43;6.18;;;;;;;1.87;56.02;102433.72;10402293;27;20131;-66
2022/03/11 08:41:44;;;;;;;12.27;6.15;;;;;;;1.89;55.76;102415.44;10405491;27;20109;-66
2022/03/11 08:46:41;;;;;;;15.73;6.30;;;;;;;2.14;53.61;102422.75;10402840;27;20055;-65
2022/03/11 08:51:37;;;;;;;15.68;6.57;;;;;;;2.25;51.92;102413.94;10399375;28;20131;-66
2022/03/11 08:56:34;;;;;;;12.50;5.97;;;;;;;2.44;52.69;102411.28;10409514;27;20068;-67
2022/03/11 09:01:31;;;;;;;15.15;6.90;;;;;;;2.74;51.31;102401.44;10432393;27;20036;-66
2022/03/11 09:06:27;;;;;;;15.77;7.13;;;;;;;2.93;49.52;102398.72;10396554;27;20039;-66
2022/03/11 09:11:24;;;;;;;13.45;5.97;;;;;;;3.15;48.84;102391.78;10417990;27;20510;-66
2022/03/11 09:16:21;;;;;;;16.50;6.63;;;;;;;3.31;44.93;102382.25;10376517;27;20047;-66
2022/03/11 09:21:17;;;;;;;16.10;6.47;;;;;;;3.54;47.50;102370.69;10386408;27;20073;-66
2022/03/11 09:26:14;;;;;;;12.88;5.78;;;;;;;3.65;44.23;102366.38;10413207;27;20047;-66
2022/03/11 09:31:11;;;;;;;11.57;6.30;;;;;;;3.85;43.50;102368.78;10417390;27;20052;-66
2022/03/11 09:36:08;;;;;;;11.93;5.90;;;;;;;4.03;40.90;102353.50;10389205;27;20071;-66
2022/03/11 09:41:05;;;;;;;16.50;5.95;;;;;;;4.31;41.18;102356.34;10400680;27;20105;-66
2022/03/11 09:46:03;;;;;;;12.55;6.50;;;;;;;4.39;40.25;102345.16;10404236;27;20489;-66
2022/03/11 09:51:00;;;;;;;12.13;5.45;;;;;;;4.59;39.02;102338.53;10385007;27;20131;-66
2022/03/11 09:56:03;;;;;;;15.10;5.97;;;;;;;4.67;39.38;102321.94;10392224;27;20438;-66
2022/03/11 10:01:00;;;;;;;13.73;5.43;;;;;;;4.99;39.10;102313.34;10369286;27;20063;-66
2022/03/11 10:05:56;;;;;;;13.43;5.65;;;;;;;5.16;39.06;102319.66;10373535;28;20130;-67
2022/03/11 10:10:53;;;;;;;14.27;6.47;;;;;;;5.65;40.31;102325.44;10354382;28;20048;-67
2022/03/11 10:15:49;;;;;;;14.02;5.95;;;;;;;6.24;38.34;102318.78;10382486;27;20039;-66
2022/03/11 10:20:46;;;;;;;12.65;5.97;;;;;;;6.42;38.28;102320.41;10437332;27;20054;-67
2022/03/11 10:25:43;;;;;;;13.85;6.30;;;;;;;6.64;37.19;102315.00;10416287;27;20044;-66
2022/03/11 10:30:41;;;;;;;13.63;6.30;;;;;;;6.67;37.29;102315.31;10436303;27;20096;-67
2022/03/11 10:35:39;;;;;;;15.88;6.07;;;;;;;6.90;37.68;102314.22;10398229;27;20044;-67
2022/03/11 10:40:42;;;;;;;12.98;6.07;;;;;;;6.82;36.44;102309.22;10378738;27;20584;-66
2022/03/11 10:46:06;;;;;;;11.05;6.20;;;;;;;6.99;36.23;102297.47;10384224;27;20564;-66
2022/03/11 10:51:09;;;;;;;12.38;5.85;;;;;;;7.14;34.50;102289.47;10400888;27;20064;-67
2022/03/11 10:56:07;;;;;;;14.13;5.95;;;;;;;7.19;34.59;102281.34;10377955;27;20089;-67
2022/03/11 11:01:03;;;;;;;13.75;5.97;;;;;;;7.21;33.63;102268.31;10361143;27;20059;-67
2022/03/11 11:06:01;;;;;;;11.15;6.20;;;;;;;7.85;34.43;102266.69;10370063;28;20052;-67
2022/03/11 11:10:57;;;;;;;11.65;5.85;;;;;;;8.30;33.30;102262.59;10394369;28;20039;-67
2022/03/11 11:15:59;;;;;;;11.70;6.03;;;;;;;8.39;30.29;102250.09;10389929;27;20070;-66
2022/03/11 11:20:58;;;;;;;18.05;6.07;;;;;;;8.36;30.63;102261.53;10394265;28;20066;-67
2022/03/11 11:25:56;;;;;;;12.30;5.60;;;;;;;8.07;30.00;102258.38;10384536;27;20622;-67
2022/03/11 11:30:58;;;;;;;;;;;;;;;8.13;30.88;102247.25;10436198;27;20501;-67
2022/03/11 11:36:01;;;;;;;10.65;5.85;;;;;;;8.41;30.30;102242.53;10384776;28;19963;-67
2022/03/11 11:40:59;;;;;;;11.95;6.68;;;;;;;8.28;29.82;102242.97;10404310;27;20088;-67
2022/03/11 11:46:02;;;;;;;11.98;6.15;;;;;;;8.54;29.86;102228.41;10399258;27;20039;-67
2022/03/11 11:51:06;;;;;;;14.98;6.15;;;;;;;8.91;30.16;102229.31;10430746;27;20050;-67
2022/03/11 11:56:33;;;;;;;13.32;5.15;;;;;;;9.25;30.49;102222.25;10405750;28;20039;-67
2022/03/11 12:01:39;;;;;;;11.88;5.47;;;;;;;9.44;29.28;102202.59;10414582;27;20417;-67
2022/03/11 12:06:59;;;;;;;10.57;5.65;;;;;;;9.92;29.68;102200.38;10392180;27;20465;-67
2022/03/11 12:11:56;;;;;;;12.45;5.68;;;;;;;10.20;28.16;102196.16;10385610;27;20762;-67
2022/03/11 12:17:01;;;;;;;12.30;6.60;;;;;;;11.00;27.11;102186.19;10405269;27;20043;-67
2022/03/11 12:21:57;;;;;;;10.88;5.10;;;;;;;11.73;26.30;102194.34;10365088;27;20048;-67
2022/03/11 12:26:54;;;;;;;11.90;5.57;;;;;;;12.51;24.85;102169.59;10400859;27;20043;-67
2022/03/11 12:31:50;;;;;;;10.07;5.28;;;;;;;12.71;25.14;102163.00;10435836;27;20520;-67
2022/03/11 12:36:48;;;;;;;10.07;4.85;;;;;;;13.14;23.06;102152.72;10420115;27;20082;-67
2022/03/11 12:41:45;;;;;;;10.48;5.60;;;;;;;13.65;23.95;102143.59;10399286;28;20497;-67
2022/03/11 12:46:42;;;;;;;10.48;5.72;;;;;;;14.35;24.09;102143.56;10410436;27;20043;-67
2022/03/11 12:51:39;;;;;;;14.38;5.93;;;;;;;15.29;22.78;102151.00;10441228;27;20134;-67
2022/03/11 12:56:36;;;;;;;11.30;5.20;;;;;;;15.87;20.92;102142.84;10386523;28;20078;-67
2022/03/11 13:01:35;;;;;;;15.95;5.35;;;;;;;15.82;20.37;102129.22;10380530;28;20067;-67
2022/03/11 13:06:32;;;;;;;13.15;5.10;;;;;;;15.80;19.72;102126.75;10397363;27;20061;-67
2022/03/11 13:11:28;;;;;;;10.15;4.57;;;;;;;15.46;17.91;102132.94;10368943;27;20044;-67
2022/03/11 13:16:25;;;;;;;9.98;5.22;;;;;;;16.25;18.16;102125.75;10393874;27;20043;-67
2022/03/11 13:21:21;;;;;;;13.38;5.00;;;;;;;16.45;17.73;102116.03;10397791;27;20354;-67
2022/03/11 13:26:21;;;;;;;10.23;4.72;;;;;;;16.37;17.02;102107.41;10386458;27;20044;-67
2022/03/11 13:31:29;;;;;;;9.93;5.05;;;;;;;16.80;18.15;102114.09;10397924;28;20085;-67
2022/03/11 13:36:27;;;;;;;12.02;5.38;;;;;;;16.65;16.94;102095.25;10403453;27;20077;-67
2022/03/11 13:41:26;;;;;;;8.32;4.55;;;;;;;16.60;16.96;102099.78;10405230;27;20179;-67
2022/03/11 13:46:30;;;;;;;10.50;4.63;;;;;;;15.84;17.36;102094.66;10383860;28;20046;-67
2022/03/11 13:51:39;;;;;;;12.65;5.18;;;;;;;15.87;17.85;102087.69;10386226;28;20159;-67
2022/03/11 13:56:40;;;;;;;8.63;5.10;;;;;;;15.62;18.16;102081.75;10379685;28;20127;-67
2022/03/11 14:01:42;;;;;;;11.15;5.20;;;;;;;16.09;17.54;102095.84;10377853;28;20055;-66
2022/03/11 14:06:41;;;;;;;12.33;4.83;;;;;;;15.96;17.32;102088.53;10402238;27;20130;-67
2022/03/11 14:11:38;;;;;;;10.13;4.80;;;;;;;15.94;17.69;102077.00;10363202;27;20052;-67
2022/03/11 14:16:36;;;;;;;10.10;5.35;;;;;;;16.04;17.59;102076.72;10379063;28;20493;-66
2022/03/11 14:21:32;;;;;;;13.43;5.35;;;;;;;16.06;18.09;102084.63;10356754;28;20040;-67
2022/03/11 14:26:29;;;;;;;15.60;5.15;;;;;;;15.66;18.08;102066.19;10377799;27;20116;-67
2022/03/11 14:31:28;;;;;;;12.65;4.70;;;;;;;16.10;17.29;102080.91;10394243;28;20513;-67
2022/03/11 14:36:25;;;;;;;9.73;4.60;;;;;;;16.13;17.22;102072.00;10400738;27;20052;-67
2022/03/11 14:41:22;;;;;;;11.10;4.95;;;;;;;15.75;17.66;102069.81;10395067;28;20066;-67
2022/03/11 14:46:20;;;;;;;10.30;5.32;;;;;;;15.67;17.81;102056.00;10391407;27;20186;-67
2022/03/11 14:51:17;;;;;;;9.52;5.20;;;;;;;15.49;17.67;102049.59;10427104;27;20075;-67
2022/03/11 14:56:14;;;;;;;11.32;4.50;;;;;;;15.23;17.61;102047.53;10392986;27;20063;-67
2022/03/11 15:01:10;;;;;;;9.60;4.55;;;;;;;15.45;17.89;102043.91;10425123;27;20781;-67
2022/03/11 15:06:07;;;;;;;9.15;4.80;;;;;;;15.17;18.17;102059.03;10388102;27;20100;-67
2022/03/11 15:11:03;;;;;;;12.60;5.38;;;;;;;15.33;18.16;102047.25;10421590;27;20052;-67
2022/03/11 15:16:00;;;;;;;10.02;4.00;;;;;;;15.67;18.17;102039.44;10383599;27;20043;-67
2022/03/11 15:20:59;;;;;;;9.30;4.80;;;;;;;15.32;18.31;102037.38;10413258;27;20040;-68
2022/03/11 15:25:56;;;;;;;14.20;4.88;;;;;;;14.79;18.62;102038.22;10386448;27;20051;-67
2022/03/11 15:30:56;;;;;;;10.05;4.72;;;;;;;14.36;19.10;102035.94;10356161;28;20157;-67
2022/03/11 15:35:55;;;;;;;10.50;4.30;;;;;;;13.61;19.34;102018.91;10383429;28;20055;-67
2022/03/11 15:40:52;;;;;;;12.98;4.90;;;;;;;12.45;20.88;102022.66;10381068;28;20067;-67
2022/03/11 15:45:50;;;;;;;9.27;4.88;;;;;;;12.45;20.40;102028.94;10411415;27;20043;-67
2022/03/11 15:50:47;;;;;;;9.05;4.75;;;;;;;12.13;20.37;102043.41;10400761;28;20055;-67
2022/03/11 15:55:44;;;;;;;8.80;4.55;;;;;;;12.40;20.55;102024.34;10406592;27;20051;-67
2022/03/11 16:00:40;;;;;;;11.18;4.93;;;;;;;13.29;19.87;102027.25;10442838;27;20047;-66
2022/03/11 16:05:38;;;;;;;13.80;5.18;;;;;;;13.33;20.39;102031.03;10422328;27;20063;-66
2022/03/11 16:10:35;;;;;;;9.98;5.53;;;;;;;13.12;20.03;102011.34;10442612;27;20043;-66
2022/03/11 16:15:31;;;;;;;11.65;5.07;;;;;;;12.35;20.40;102005.25;10420305;27;20505;-66
2022/03/11 16:20:28;;;;;;;8.27;4.65;;;;;;;12.52;20.55;102031.31;10441270;27;20503;-67
2022/03/11 16:25:25;;;;;;;13.35;5.30;;;;;;;12.06;22.47;102042.97;10395734;27;20067;-67
2022/03/11 16:30:36;;;;;;;10.55;5.60;;;;;;;11.76;23.79;102042.22;10358330;28;20051;-66
2022/03/11 16:35:36;;;;;;;14.68;5.30;;;;;;;11.23;23.89;102039.56;10373505;28;20047;-67
2022/03/11 16:40:33;;;;;;;10.60;5.20;;;;;;;10.61;23.94;102031.91;10386668;28;20048;-67
2022/03/11 16:45:31;;;;;;;10.13;5.32;;;;;;;10.48;24.91;102043.50;10383275;27;20047;-67
2022/03/11 16:50:27;;;;;;;12.98;6.07;;;;;;;10.29;25.56;102035.16;10412549;27;20164;-67
2022/03/11 16:55:26;;;;;;;14.13;6.13;;;;;;;9.75;26.53;102036.81;10402694;27;20059;-66
2022/03/11 17:00:23;;;;;;;10.30;5.18;;;;;;;9.81;26.62;102032.94;10364546;27;20043;-67
2022/03/11 17:05:19;;;;;;;10.30;5.63;;;;;;;9.46;27.03;102033.91;10383272;27;20172;-67
2022/03/11 17:10:16;;;;;;;10.50;5.93;;;;;;;9.16;28.93;102035.59;10435903;27;20103;-67
2022/03/11 17:15:13;;;;;;;12.07;6.75;;;;;;;9.35;27.79;102038.59;10426356;27;20133;-67
2022/03/11 17:20:11;;;;;;;12.63;5.40;;;;;;;9.03;29.23;102042.47;10436133;27;20096;-67
2022/03/11 17:25:08;;;;;;;12.45;6.07;;;;;;;8.85;29.04;102037.56;10379358;27;20053;-68
2022/03/11 17:30:10;;;;;;;14.07;6.35;;;;;;;8.63;29.15;102038.66;10417657;27;20119;-67
2022/03/11 17:35:07;;;;;;;10.07;5.72;;;;;;;8.60;29.02;102041.91;10382402;27;20051;-68
2022/03/11 17:40:04;;;;;;;8.02;5.10;;;;;;;8.33;29.00;102049.50;10393231;28;20043;-67
2022/03/11 17:45:00;;;;;;;11.75;5.90;;;;;;;8.28;29.25;102046.75;10406374;27;20048;-67
2022/03/11 17:49:58;;;;;;;13.38;5.78;;;;;;;7.96;29.18;102051.31;10376616;27;20067;-67
2022/03/11 17:54:55;;;;;;;10.50;6.00;;;;;;;8.02;29.77;102065.75;10366499;28;20128;-67
2022/03/11 17:59:53;;;;;;;11.52;5.70;;;;;;;8.05;29.81;102064.41;10362925;28;20055;-67
2022/03/11 18:04:49;;;;;;;11.80;6.38;;;;;;;7.69;29.56;102067.81;10372715;27;20051;-67
2022/03/11 18:09:46;;;;;;;11.82;5.57;;;;;;;7.41;30.05;102068.22;10363075;27;20390;-67
2022/03/11 18:14:42;;;;;;;13.07;6.13;;;;;;;7.23;30.71;102073.00;10368850;27;20788;-66
2022/03/11 18:19:39;;;;;;;13.57;6.22;;;;;;;7.48;29.91;102063.38;10402146;27;20477;-67
2022/03/11 18:24:35;;;;;;;11.60;5.72;;;;;;;7.33;30.63;102070.38;10387633;27;20078;-67
2022/03/11 18:29:32;;;;;;;13.40;5.60;;;;;;;7.29;29.43;102063.81;10427981;27;20047;-66
2022/03/11 18:34:29;;;;;;;12.50;5.70;;;;;;;7.00;30.20;102066.03;10382496;27;20051;-66
2022/03/11 18:39:27;;;;;;;11.13;5.57;;;;;;;7.01;30.20;102066.84;10410570;27;20035;-66
2022/03/11 18:44:23;;;;;;;11.05;5.60;;;;;;;7.04;30.13;102066.34;10368055;27;20043;-67
2022/03/11 18:49:20;;;;;;;12.63;6.10;;;;;;;6.89;30.43;102072.47;10376253;27;20044;-66
2022/03/11 18:54:17;;;;;;;13.43;6.35;;;;;;;6.92;30.26;102070.06;10363835;27;20067;-66
2022/03/11 18:59:13;;;;;;;16.58;6.53;;;;;;;6.88;29.44;102052.63;10400832;27;20039;-66
2022/03/11 19:04:10;;;;;;;10.52;5.57;;;;;;;6.71;29.96;102062.84;10394584;27;20085;-66
2022/03/11 19:09:07;;;;;;;13.98;5.93;;;;;;;6.56;30.61;102065.41;10423330;27;20047;-66
2022/03/11 19:14:04;;;;;;;11.43;5.68;;;;;;;6.67;29.45;102059.81;10426000;27;20092;-66
2022/03/11 19:19:01;;;;;;;10.18;5.50;;;;;;;6.65;29.69;102058.41;10392447;28;20044;-66
2022/03/11 19:23:59;;;;;;;12.85;5.70;;;;;;;6.61;30.02;102057.28;10384868;28;20047;-67
2022/03/11 19:28:56;;;;;;;10.02;4.97;;;;;;;6.48;30.03;102064.81;10392192;28;20144;-66
2022/03/11 19:33:53;;;;;;;13.18;5.28;;;;;;;6.45;29.65;102059.03;10383815;28;20052;-66
2022/03/11 19:38:49;;;;;;;12.95;5.75;;;;;;;6.35;29.82;102062.47;10373961;28;20181;-66
2022/03/11 19:43:46;;;;;;;9.73;4.78;;;;;;;6.34;29.37;102057.31;10387738;28;20075;-66
2022/03/11 19:48:43;;;;;;;9.10;5.05;;;;;;;6.29;29.49;102055.38;10373802;28;20040;-66
2022/03/11 19:53:41;;;;;;;11.57;5.40;;;;;;;6.13;29.54;102061.69;10392661;27;20043;-66
2022/03/11 19:58:40;;;;;;;9.05;5.05;;;;;;;6.10;29.33;102068.47;10424782;28;20105;-66
2022/03/11 20:03:36;;;;;;;10.52;5.03;;;;;;;6.11;29.22;102070.94;10391708;27;20064;-66
2022/03/11 20:08:33;;;;;;;12.35;5.32;;;;;;;6.08;29.46;102081.47;10422955;28;20074;-67
2022/03/11 20:13:30;;;;;;;12.60;4.78;;;;;;;6.03;29.29;102074.09;10375934;28;20047;-67
2022/03/11 20:18:27;;;;;;;13.18;5.75;;;;;;;5.99;29.14;102070.25;10403074;27;20089;-66
2022/03/11 20:23:25;;;;;;;11.70;4.55;;;;;;;5.90;29.54;102071.75;10354138;28;20121;-67
2022/03/11 20:28:24;;;;;;;12.23;4.90;;;;;;;5.88;29.21;102076.59;10403558;27;20094;-66
2022/03/11 20:33:21;;;;;;;11.13;4.72;;;;;;;5.88;29.64;102088.28;10358655;28;20555;-66
2022/03/11 20:38:17;;;;;;;17.33;5.43;;;;;;;5.79;29.63;102072.69;10396803;27;20071;-67
2022/03/11 20:43:25;;;;;;;14.15;5.72;;;;;;;5.62;29.11;102073.56;10383144;28;20044;-66
2022/03/11 20:48:21;;;;;;;10.02;4.53;;;;;;;5.64;29.26;102066.00;10382863;27;20060;-66
2022/03/11 20:53:21;;;;;;;9.73;4.78;;;;;;;5.63;30.23;102067.06;10340191;28;20048;-67
2022/03/11 20:58:18;;;;;;;9.63;4.63;;;;;;;5.55;30.16;102061.25;10400648;27;20063;-67
2022/03/11 21:03:15;;;;;;;11.48;5.20;;;;;;;5.37;31.00;102048.81;10395381;28;20048;-67
2022/03/11 21:08:12;;;;;;;8.68;4.65;;;;;;;5.44;30.22;102054.88;10428407;27;20127;-67
2022/03/11 21:13:11;;;;;;;11.75;5.97;;;;;;;5.44;30.16;102063.00;10404166;27;20090;-66
2022/03/11 21:18:08;;;;;;;12.25;5.00;;;;;;;5.40;29.99;102064.56;10424254;27;20108;-66
2022/03/11 21:23:05;;;;;;;17.13;4.60;;;;;;;5.36;30.41;102068.84;10400671;27;20102;-66
2022/03/11 21:28:02;;;;;;;13.30;5.45;;;;;;;5.28;30.14;102061.97;10378750;27;20517;-66
2022/03/11 21:32:59;;;;;;;12.82;4.90;;;;;;;5.14;30.80;102066.09;10357266;27;20134;-66
2022/03/11 21:37:56;;;;;;;13.18;5.60;;;;;;;5.04;31.62;102055.94;10370047;27;20052;-66
2022/03/11 21:42:52;;;;;;;25.98;8.55;;;;;;;5.09;32.14;102071.44;10367508;28;20530;-66
2022/03/11 21:47:49;;;;;;;11.45;6.10;;;;;;;4.98;31.16;102067.75;10377914;27;20043;-67
2022/03/11 21:52:46;;;;;;;17.45;5.65;;;;;;;5.03;32.03;102065.13;10366148;27;20102;-66
2022/03/11 21:57:43;;;;;;;11.23;5.63;;;;;;;4.97;31.83;102075.06;10371484;27;20695;-65
2022/03/11 22:02:40;;;;;;;10.20;5.28;;;;;;;4.88;31.53;102062.19;10370066;27;20048;-66
2022/03/11 22:07:38;;;;;;;11.60;5.65;;;;;;;4.81;32.12;102063.16;10371543;28;20145;-65
2022/03/11 22:12:35;;;;;;;14.55;6.65;;;;;;;4.76;32.54;102071.22;10377698;27;20787;-65
2022/03/11 22:17:33;;;;;;;15.90;5.55;;;;;;;4.76;31.91;102076.63;10380101;27;20517;-66
2022/03/11 22:22:29;;;;;;;11.40;5.75;;;;;;;4.61;33.22;102073.66;10367841;28;20055;-65
2022/03/11 22:27:26;;;;;;;12.40;6.18;;;;;;;4.61;32.98;102079.88;10372457;28;20063;-65
2022/03/11 22:32:26;;;;;;;10.00;5.35;;;;;;;4.53;33.18;102083.00;10365751;27;20070;-65
2022/03/11 22:37:24;;;;;;;12.70;6.45;;;;;;;4.57;33.16;102080.59;10393914;27;20047;-64
2022/03/11 22:42:22;;;;;;;13.07;6.20;;;;;;;4.43;33.79;102083.66;10392981;27;20769;-63
2022/03/11 22:47:20;;;;;;;12.77;5.88;;;;;;;4.46;33.09;102071.50;10377648;27;20112;-66